Hickory Regional Airport Hickory US
ICAO: KHKY
IATA: HKY
Category: Medium
Scheduled Services: No

Elevation: 1190 ft
TransAlt. 18000 ft.

Airport Communications:
ASOS:118.325
CLNC DEL:121.7
ATLANTA CNTR:125.15
CTAF:128.15
GND:121.7
RALEIGH RDO:122.2
TWR:128.15

KHKY Zoom In..

Runways:

(A) RW 01 length 4400 ft width 150 ft
---- / hdg 14

(B) RW 06 length 6400 ft width 150 ft
---- / hdg 61

(C) RW 19 length 4400 ft width 150 ft
---- / hdg 194

(D) RW 24 length 6400 ft width 150 ft
ILS 108.70 / hdg 241

Location; KHKY
Day. 16 / Time. 17.53 Zulu
* Altimeter: 30.06
* Temperature: 29° c. 84.2°f.
* Wind from: VRB° Speed 05 kn.
Dewpoint: 23° c.
Visibility: 10 Statute Miles.
Clouds: Few 7500 ft.

KHKY 161753Z VRB05KT 10SM FEW075 29/23 A3006 RMK AO2 SLP154 T02890233 10289 20228 58010


Wind From VRB°
Speed 05 kn.

 
 
jpsmedia.com for Web Design worldairports.se 2018   terms of use